createdAt,value
2018-02-14T00:04:05.861Z,986.11
2018-02-14T00:09:19.318Z,986.16
2018-02-14T00:13:20.757Z,986.15
2018-02-14T00:18:34.181Z,986.12
2018-02-14T00:22:35.592Z,986.17
2018-02-14T00:26:37.511Z,986.25
2018-02-14T00:31:50.958Z,986.23
2018-02-14T00:35:52.898Z,986.28
2018-02-14T00:42:37.059Z,986.28
2018-02-14T00:47:50.515Z,986.29
2018-02-14T00:51:52.419Z,986.28
2018-02-14T00:57:05.872Z,986.39
2018-02-14T01:02:19.893Z,986.46
2018-02-14T04:24:15.975Z,987.76
2018-02-14T04:29:29.446Z,987.83
2018-02-14T04:37:44.889Z,987.88
2018-02-14T04:41:46.303Z,987.93
2018-02-14T04:46:59.796Z,988.00
2018-02-14T04:52:13.257Z,988.05
2018-02-14T04:57:26.679Z,988.10
2018-02-14T05:04:11.335Z,988.19
2018-02-14T05:09:24.787Z,988.21
2018-02-14T05:14:38.427Z,988.29
2018-02-14T05:25:56.309Z,988.45
2018-02-14T07:48:49.785Z,989.79
2018-02-14T07:49:49.732Z,989.78
2018-02-14T07:50:49.683Z,989.77
2018-02-14T07:51:49.636Z,989.80
2018-02-14T07:52:49.590Z,989.81
2018-02-14T07:53:49.550Z,989.81
2018-02-14T07:54:49.501Z,989.81
2018-02-14T07:55:49.452Z,989.80
2018-02-14T07:56:49.411Z,989.83
2018-02-14T07:57:49.359Z,989.80
2018-02-14T07:58:49.311Z,989.80
2018-02-14T07:59:49.369Z,989.80
2018-02-14T08:00:49.218Z,989.82
2018-02-14T08:01:49.173Z,989.84
2018-02-14T08:02:49.127Z,989.88
2018-02-14T08:03:49.083Z,989.90
2018-02-14T08:04:49.037Z,989.91
2018-02-14T08:05:48.990Z,989.88
2018-02-14T08:06:48.944Z,989.90
2018-02-14T08:07:48.896Z,989.90
2018-02-14T08:10:19.581Z,989.90
2018-02-14T08:15:34.524Z,989.96
2018-02-14T08:17:46.494Z,989.93
2018-02-14T08:19:58.480Z,989.93
2018-02-14T08:22:10.475Z,989.98
2018-02-14T08:24:22.478Z,989.98
2018-02-14T08:28:05.306Z,989.96
2018-02-14T08:30:17.320Z,990.00
2018-02-14T08:32:29.301Z,990.02
2018-02-14T08:34:41.328Z,990.01
2018-02-14T08:36:53.291Z,989.96
2018-02-14T08:39:05.280Z,989.94
2018-02-14T08:41:17.274Z,989.98
2018-02-14T08:43:29.770Z,989.98
2018-02-14T08:45:41.806Z,990.00
2018-02-14T08:47:53.785Z,990.08
2018-02-14T08:50:05.794Z,990.05
2018-02-14T08:52:17.767Z,990.09
2018-02-14T08:54:29.808Z,990.16
2018-02-14T08:56:41.775Z,990.16
2018-02-14T08:58:53.772Z,990.18
2018-02-14T09:01:05.791Z,990.19
2018-02-14T09:03:17.753Z,990.22
2018-02-14T09:05:29.743Z,990.15
2018-02-14T09:07:41.737Z,990.27
2018-02-14T09:09:53.745Z,990.28
2018-02-14T09:12:05.769Z,990.32
2018-02-14T09:14:17.733Z,990.32
2018-02-14T09:16:29.721Z,990.41
2018-02-14T09:18:41.723Z,990.41
2018-02-14T09:20:53.718Z,990.37
2018-02-14T09:23:05.746Z,990.41
2018-02-14T09:25:17.711Z,990.45
2018-02-14T09:27:29.708Z,990.44
2018-02-14T09:29:41.704Z,990.50
2018-02-14T09:31:53.700Z,990.53
2018-02-14T09:34:05.686Z,990.56
2018-02-14T09:36:17.680Z,990.59
2018-02-14T09:38:29.713Z,990.61
2018-02-14T09:40:41.674Z,990.61
2018-02-14T09:42:53.680Z,990.58
2018-02-14T09:45:05.675Z,990.59
2018-02-14T09:47:17.672Z,990.56
2018-02-14T09:49:29.715Z,990.59
2018-02-14T09:51:41.664Z,990.58
2018-02-14T09:53:53.667Z,990.62
2018-02-14T09:56:05.657Z,990.63
2018-02-14T09:58:17.669Z,990.63
2018-02-14T10:00:29.644Z,990.63
2018-02-14T10:02:41.651Z,990.64
2018-02-14T10:04:53.637Z,990.60
2018-02-14T10:07:05.641Z,990.65
2018-02-14T10:09:17.628Z,990.61
2018-02-14T10:11:29.617Z,990.55
2018-02-14T10:13:41.616Z,990.56
2018-02-14T10:15:53.648Z,990.58
2018-02-14T10:18:05.612Z,990.61
2018-02-14T10:20:17.599Z,990.65
2018-02-14T10:24:19.026Z,990.62
2018-02-14T10:26:31.037Z,990.63
2018-02-14T10:28:43.007Z,990.62
2018-02-14T10:30:54.994Z,990.65
2018-02-14T10:33:06.983Z,990.64
2018-02-14T10:35:18.970Z,990.64
2018-02-14T10:37:30.949Z,990.61
2018-02-14T10:39:42.932Z,990.63
2018-02-14T10:41:54.924Z,990.65
2018-02-14T10:44:06.910Z,990.65
2018-02-14T10:46:19.909Z,990.68
2018-02-14T10:48:31.965Z,990.70
2018-02-14T10:51:03.638Z,990.73
2018-02-14T10:53:16.681Z,990.71
2018-02-14T10:55:28.624Z,990.62
2018-02-14T10:57:41.632Z,990.59
2018-02-14T10:59:53.732Z,990.59
2018-02-14T11:02:05.736Z,990.59
2018-02-14T11:04:18.755Z,990.54
2018-02-14T11:06:30.859Z,990.52
2018-02-14T11:08:43.867Z,990.49
2018-02-14T11:10:55.858Z,990.47
2018-02-14T11:13:07.856Z,990.47
2018-02-14T11:16:51.595Z,990.44
2018-02-14T11:19:03.573Z,990.44
2018-02-14T11:21:15.572Z,990.36
2018-02-14T11:23:27.557Z,990.29
2018-02-14T11:25:39.563Z,990.29
2018-02-14T11:27:51.528Z,990.22
2018-02-14T11:30:03.524Z,990.24
2018-02-14T11:32:15.520Z,990.22
2018-02-14T11:34:27.540Z,990.20
2018-02-14T11:36:39.530Z,990.14
2018-02-14T11:38:51.523Z,990.11
2018-02-14T11:41:03.541Z,990.10
2018-02-14T11:43:15.521Z,990.10
2018-02-14T11:45:27.511Z,990.10
2018-02-14T11:47:39.506Z,990.15
2018-02-14T11:49:51.493Z,990.18
2018-02-14T11:52:03.486Z,990.21
2018-02-14T11:54:15.616Z,990.21
2018-02-14T11:56:27.504Z,990.28
2018-02-14T11:58:39.471Z,990.26
2018-02-14T12:00:51.464Z,990.19
2018-02-14T12:03:03.466Z,990.14
2018-02-14T12:05:15.458Z,990.11
2018-02-14T12:07:27.475Z,990.10
2018-02-14T12:09:39.447Z,990.08
2018-02-14T12:11:51.461Z,990.11
2018-02-14T12:14:03.441Z,990.12
2018-02-14T12:16:15.446Z,990.06
2018-02-14T12:18:27.453Z,990.11
2018-02-14T12:20:39.411Z,990.11
2018-02-14T12:22:51.401Z,990.07
2018-02-14T12:25:03.397Z,990.06
2018-02-14T12:27:15.390Z,989.99
2018-02-14T12:29:27.389Z,989.98
2018-02-14T12:31:39.376Z,989.99
2018-02-14T12:33:51.400Z,989.99
2018-02-14T12:36:03.368Z,989.96
2018-02-14T12:38:15.363Z,989.99
2018-02-14T12:40:27.358Z,990.02
2018-02-14T12:42:39.348Z,990.05
2018-02-14T12:44:51.359Z,990.07
2018-02-14T12:47:03.332Z,990.05
2018-02-14T12:49:15.327Z,989.99
2018-02-14T12:51:27.322Z,990.00
2018-02-14T12:53:39.316Z,989.99
2018-02-14T12:55:51.345Z,989.95
2018-02-14T12:58:03.302Z,990.01
2018-02-14T13:00:15.295Z,989.99
2018-02-14T13:02:27.287Z,990.07
2018-02-14T13:04:39.809Z,989.99
2018-02-14T13:06:51.812Z,989.99
2018-02-14T13:09:03.766Z,989.98
2018-02-14T13:11:15.760Z,990.02
2018-02-14T13:13:27.754Z,990.06
2018-02-14T13:15:39.748Z,990.08
2018-02-14T13:17:51.784Z,990.04
2018-02-14T13:20:03.734Z,990.02
2018-02-14T13:22:15.729Z,989.99
2018-02-14T13:24:27.722Z,990.00
2018-02-14T13:26:39.716Z,989.96
2018-02-14T13:28:51.707Z,989.98
2018-02-14T13:31:03.703Z,990.01
2018-02-14T13:33:15.701Z,990.00
2018-02-14T13:35:27.684Z,990.01
2018-02-14T13:37:39.678Z,990.04
2018-02-14T13:39:51.703Z,990.08
2018-02-14T13:42:03.665Z,990.01
2018-02-14T13:44:15.662Z,990.04
2018-02-14T13:46:27.664Z,990.02
2018-02-14T13:48:39.653Z,990.02
2018-02-14T13:50:51.671Z,990.04
2018-02-14T13:53:03.634Z,990.05
2018-02-14T13:55:15.628Z,989.99
2018-02-14T13:57:27.623Z,989.93
2018-02-14T13:59:39.621Z,989.98
2018-02-14T14:01:51.614Z,989.90
2018-02-14T14:04:03.612Z,989.91
2018-02-14T14:06:15.605Z,989.96
2018-02-14T14:08:27.602Z,989.93
2018-02-14T14:10:39.611Z,989.93
2018-02-14T14:12:51.630Z,989.99
2018-02-14T14:15:03.585Z,989.97
2018-02-14T14:17:15.579Z,989.97
2018-02-14T14:19:27.574Z,990.03
2018-02-14T14:21:39.565Z,989.97
2018-02-14T14:23:51.586Z,989.99
2018-02-14T14:26:03.557Z,990.01
2018-02-14T14:28:15.545Z,989.97
2018-02-14T14:30:27.539Z,989.99
2018-02-14T14:32:39.530Z,989.97
2018-02-14T14:34:51.560Z,989.96
2018-02-14T14:37:03.523Z,989.97
2018-02-14T14:39:15.517Z,989.96
2018-02-14T14:41:27.508Z,990.03
2018-02-14T14:43:39.507Z,990.07
2018-02-14T14:45:52.545Z,990.10
2018-02-14T14:48:05.525Z,990.10
2018-02-14T14:50:18.525Z,990.19
2018-02-14T14:52:31.541Z,990.18
2018-02-14T14:54:44.534Z,990.19
2018-02-14T14:56:57.573Z,990.20
2018-02-14T14:59:09.532Z,990.23
2018-02-14T15:01:21.512Z,990.24
2018-02-14T15:03:33.519Z,990.23
2018-02-14T15:05:45.496Z,990.20
2018-02-14T15:07:57.504Z,990.19
2018-02-14T15:10:09.476Z,990.23
2018-02-14T15:12:21.458Z,990.21
2018-02-14T15:14:33.449Z,990.24
2018-02-14T15:16:45.443Z,990.23
2018-02-14T15:18:57.457Z,990.26
2018-02-14T15:21:09.428Z,990.25
2018-02-14T15:23:21.429Z,990.29
2018-02-14T15:25:33.418Z,990.26
2018-02-14T15:29:16.622Z,990.23
2018-02-14T15:31:28.623Z,990.25
2018-02-14T15:33:40.828Z,990.25
2018-02-14T15:34:40.775Z,990.24
2018-02-14T15:36:33.785Z,990.25
2018-02-14T15:42:30.524Z,990.26
2018-02-14T15:44:43.534Z,990.30
2018-02-14T15:46:56.555Z,990.36
2018-02-14T15:49:09.554Z,990.33
2018-02-14T15:51:22.549Z,990.35
2018-02-14T15:53:35.556Z,990.37
2018-02-14T15:55:48.561Z,990.36
2018-02-14T15:58:01.558Z,990.37
2018-02-14T16:00:14.564Z,990.35
2018-02-14T16:02:26.582Z,990.36
2018-02-14T16:04:38.547Z,990.35
2018-02-14T16:06:51.557Z,990.37
2018-02-14T16:09:04.566Z,990.38
2018-02-14T16:11:17.567Z,990.42
2018-02-14T16:13:29.565Z,990.43
2018-02-14T16:15:41.558Z,990.39
2018-02-14T16:17:53.557Z,990.44
2018-02-14T16:20:05.553Z,990.33
2018-02-14T16:22:17.552Z,990.34
2018-02-14T16:26:00.265Z,990.29
2018-02-14T16:28:12.258Z,990.23
2018-02-14T16:31:54.964Z,990.34
2018-02-14T16:35:37.717Z,990.43
2018-02-14T16:37:50.699Z,990.58
2018-02-14T16:40:03.707Z,990.53
2018-02-14T16:43:46.421Z,990.52
2018-02-14T16:45:58.420Z,990.58
2018-02-14T16:48:10.425Z,990.62
2018-02-14T16:50:22.409Z,990.60
2018-02-14T16:52:34.426Z,990.69
2018-02-14T16:54:46.399Z,990.73
2018-02-14T16:56:58.395Z,990.76
2018-02-14T16:59:10.412Z,990.75
2018-02-14T17:01:22.382Z,990.82
2018-02-14T17:03:34.402Z,990.80
2018-02-14T17:05:46.389Z,990.82
2018-02-14T17:07:58.370Z,990.83
2018-02-14T17:10:10.361Z,990.80
2018-02-14T17:12:22.361Z,990.78
2018-02-14T17:14:34.378Z,990.79
2018-02-14T17:16:46.350Z,990.78
2018-02-14T17:18:58.346Z,990.81
2018-02-14T17:21:10.337Z,990.89
2018-02-14T17:23:22.323Z,990.95
2018-02-14T17:25:34.324Z,990.95
2018-02-14T17:27:46.320Z,990.94
2018-02-14T17:29:58.307Z,990.96
2018-02-14T17:32:10.302Z,991.03
2018-02-14T17:34:22.299Z,991.01
2018-02-14T17:36:34.296Z,991.00
2018-02-14T17:38:46.290Z,991.01
2018-02-14T17:40:58.279Z,991.07
2018-02-14T17:43:10.274Z,991.12
2018-02-14T17:45:22.266Z,991.15
2018-02-14T17:47:34.282Z,991.13
2018-02-14T17:49:46.251Z,991.21
2018-02-14T17:51:58.249Z,991.21
2018-02-14T17:54:10.243Z,991.25
2018-02-14T17:56:22.236Z,991.28
2018-02-14T17:58:34.247Z,991.30
2018-02-14T18:00:46.221Z,991.30
2018-02-14T18:02:58.216Z,991.30
2018-02-14T18:05:10.217Z,991.30
2018-02-14T18:07:22.205Z,991.29
2018-02-14T18:09:34.223Z,991.25
2018-02-14T18:11:46.194Z,991.22
2018-02-14T18:13:58.185Z,991.23
2018-02-14T18:16:10.172Z,991.27
2018-02-14T18:18:22.191Z,991.27
2018-02-14T18:20:34.193Z,991.27
2018-02-14T18:22:46.166Z,991.33
2018-02-14T18:24:58.162Z,991.30
2018-02-14T18:27:10.153Z,991.33
2018-02-14T18:29:22.148Z,991.40
2018-02-14T18:31:34.162Z,991.37
2018-02-14T18:33:46.125Z,991.36
2018-02-14T18:35:58.131Z,991.35
2018-02-14T18:38:10.126Z,991.33
2018-02-14T18:40:22.125Z,991.30
2018-02-14T18:42:34.139Z,991.28
2018-02-14T18:44:46.105Z,991.34
2018-02-14T18:46:58.097Z,991.33
2018-02-14T18:49:10.093Z,991.39
2018-02-14T18:51:22.098Z,991.39
2018-02-14T18:53:34.105Z,991.38
2018-02-14T18:55:46.078Z,991.43
2018-02-14T18:57:58.098Z,991.40
2018-02-14T19:00:10.059Z,991.45
2018-02-14T19:02:22.055Z,991.39
2018-02-14T19:04:34.048Z,991.45
2018-02-14T19:06:46.047Z,991.39
2018-02-14T19:08:58.034Z,991.41
2018-02-14T19:11:10.033Z,991.40
2018-02-14T19:13:22.025Z,991.42
2018-02-14T19:15:34.056Z,991.49
2018-02-14T19:17:46.035Z,991.50
2018-02-14T19:19:58.046Z,991.57
2018-02-14T19:22:10.023Z,991.50
2018-02-14T19:24:22.024Z,991.46
2018-02-14T19:26:34.006Z,991.46
2018-02-14T19:28:45.999Z,991.50
2018-02-14T19:30:58.005Z,991.52
2018-02-14T19:33:09.988Z,991.56
2018-02-14T19:35:21.989Z,991.52
2018-02-14T19:37:33.974Z,991.51
2018-02-14T19:39:45.972Z,991.53
2018-02-14T19:41:57.962Z,991.51
2018-02-14T19:44:09.964Z,991.51
2018-02-14T19:46:21.948Z,991.47
2018-02-14T19:48:34.462Z,991.40
2018-02-14T19:50:46.431Z,991.33
2018-02-14T19:52:58.425Z,991.28
2018-02-14T19:55:10.420Z,991.28
2018-02-14T19:57:22.410Z,991.31
2018-02-14T19:59:34.411Z,991.27
2018-02-14T20:01:46.412Z,991.22
2018-02-14T20:03:58.426Z,991.22
2018-02-14T20:07:59.828Z,991.19
2018-02-14T20:10:11.820Z,991.20
2018-02-14T20:12:23.814Z,991.20
2018-02-14T20:14:35.833Z,991.17
2018-02-14T20:16:47.786Z,991.09
2018-02-14T20:18:59.783Z,991.07
2018-02-14T20:21:11.784Z,991.10
2018-02-14T20:23:23.778Z,991.11
2018-02-14T20:25:35.796Z,991.12
2018-02-14T20:27:47.768Z,991.15
2018-02-14T20:29:59.760Z,991.14
2018-02-14T20:32:11.754Z,991.12
2018-02-14T20:34:23.753Z,991.08
2018-02-14T20:36:35.772Z,991.02
2018-02-14T20:38:47.740Z,990.99
2018-02-14T20:40:59.742Z,990.99
2018-02-14T20:43:12.228Z,990.97
2018-02-14T20:45:24.221Z,990.93
2018-02-14T20:47:36.236Z,990.89
2018-02-14T20:49:48.207Z,990.86
2018-02-14T20:52:00.212Z,990.87
2018-02-14T20:54:12.196Z,990.87
2018-02-14T20:56:24.191Z,990.83
2018-02-14T20:58:36.206Z,990.81
2018-02-14T21:00:48.175Z,990.80
2018-02-14T21:03:00.175Z,990.83
2018-02-14T21:05:12.174Z,990.79
2018-02-14T21:07:24.164Z,990.78
2018-02-14T21:09:36.160Z,990.81
2018-02-14T21:11:48.155Z,990.81
2018-02-14T21:14:00.149Z,990.83
2018-02-14T21:16:12.145Z,990.82
2018-02-14T21:18:24.135Z,990.75
2018-02-14T21:20:36.135Z,990.76
2018-02-14T21:22:48.120Z,990.71
2018-02-14T21:25:00.140Z,990.69
2018-02-14T21:27:12.107Z,990.70
2018-02-14T21:29:24.102Z,990.77
2018-02-14T21:31:36.096Z,990.79
2018-02-14T21:33:48.100Z,990.79
2018-02-14T21:36:00.116Z,990.74
2018-02-14T21:38:12.087Z,990.73
2018-02-14T21:40:24.076Z,990.74
2018-02-14T21:42:36.062Z,990.69
2018-02-14T21:44:48.057Z,990.66
2018-02-14T21:47:10.093Z,990.66
2018-02-14T21:49:22.062Z,990.58
2018-02-14T21:51:34.045Z,990.62
2018-02-14T21:53:46.041Z,990.63
2018-02-14T21:55:58.036Z,990.59
2018-02-14T21:58:10.026Z,990.57
2018-02-14T22:00:22.021Z,990.56
2018-02-14T22:02:34.005Z,990.57
2018-02-14T22:04:46.494Z,990.49
2018-02-14T22:06:58.492Z,990.58
2018-02-14T22:09:11.001Z,990.56
2018-02-14T22:11:22.973Z,990.54
2018-02-14T22:13:34.969Z,990.48
2018-02-14T22:15:46.963Z,990.42
2018-02-14T22:17:58.956Z,990.34
2018-02-14T22:20:10.950Z,990.34
2018-02-14T22:22:22.957Z,990.34
2018-02-14T22:24:34.960Z,990.36
2018-02-14T22:26:46.931Z,990.36
2018-02-14T22:28:58.922Z,990.33
2018-02-14T22:31:10.911Z,990.33
2018-02-14T22:33:22.910Z,990.31
2018-02-14T22:35:34.903Z,990.29
2018-02-14T22:37:46.897Z,990.30
2018-02-14T22:39:58.893Z,990.20
2018-02-14T22:42:10.883Z,990.17
2018-02-14T22:44:22.870Z,990.14
2018-02-14T22:46:34.897Z,990.08
2018-02-14T22:48:46.867Z,990.09
2018-02-14T22:50:58.857Z,990.12
2018-02-14T22:51:58.813Z,990.13
2018-02-14T22:53:50.816Z,990.10
2018-02-14T22:56:02.808Z,990.08
2018-02-14T22:58:14.805Z,990.10
2018-02-14T23:00:26.800Z,990.09
2018-02-14T23:02:38.783Z,990.02
2018-02-14T23:04:50.776Z,990.06
2018-02-14T23:07:02.770Z,990.08
2018-02-14T23:09:14.766Z,990.11
2018-02-14T23:11:26.758Z,990.14
2018-02-14T23:13:38.753Z,990.14
2018-02-14T23:15:50.735Z,990.18
2018-02-14T23:18:02.738Z,990.15
2018-02-14T23:20:14.735Z,990.10
2018-02-14T23:22:26.733Z,990.04
2018-02-14T23:24:38.721Z,989.99
2018-02-14T23:26:50.721Z,990.03
2018-02-14T23:29:02.708Z,990.05
2018-02-14T23:31:14.724Z,989.98
2018-02-14T23:33:26.707Z,989.98
2018-02-14T23:35:38.690Z,990.00
2018-02-14T23:37:50.681Z,989.97
2018-02-14T23:40:02.683Z,990.02
2018-02-14T23:42:14.697Z,990.01
2018-02-14T23:44:26.668Z,990.07
2018-02-14T23:46:38.664Z,990.06
2018-02-14T23:48:50.658Z,990.03
2018-02-14T23:51:02.659Z,990.04
2018-02-14T23:53:14.665Z,989.94
2018-02-14T23:55:26.638Z,989.96
2018-02-14T23:57:38.636Z,989.93
2018-02-14T23:59:50.633Z,989.97
